Time;durP1;ratioP1;P1;durP2;ratioP2;P2;SDS_P1;SDS_P2;PMS_P1;PMS_P2;Temp;Humidity;BMP_temperature;BMP_pressure;BME280_temperature;BME280_humidity;BME280_pressure;Samples;Min_cycle;Max_cycle;Signal;HPM_P1;HPM_P2
2022/06/11 00:00:07;;;;;;;;;;;;;;;21.63;54.58;100156.19;2054643;28;20354;-51
2022/06/11 00:01:16;;;;;;;;;;;;;;;21.65;54.60;100156.88;2058384;28;19917;-52
2022/06/11 00:02:16;;;;;;;;;;;;;;;21.64;54.34;100146.97;2066035;28;20245;-52
2022/06/11 00:03:17;;;;;;;;;;;;;;;21.65;54.54;100158.78;2085849;28;19909;-52
2022/06/11 00:04:41;;;;;;;;;;;;;;;21.64;54.78;100154.34;2082084;28;20358;-49
2022/06/11 00:05:42;;;;;;;;;;;;;;;21.64;54.67;100157.94;2084955;28;19943;-52
2022/06/11 00:06:44;;;;;;;;;;;;;;;21.65;54.68;100165.13;2088301;28;19959;-52
2022/06/11 00:07:45;;;;;;;;;;;;;;;21.64;54.60;100163.41;2083840;28;19936;-52
2022/06/11 00:08:45;;;;;;;;;;;;;;;21.65;54.59;100161.53;2085134;28;20273;-52
2022/06/11 00:09:46;;;;;;;;;;;;;;;21.64;54.68;100157.94;2077060;28;19924;-51
2022/06/11 00:10:47;;;;;;;;;;;;;;;21.66;54.66;100160.53;2076745;28;19960;-51
2022/06/11 00:11:49;;;;;;;;;;;;;;;21.66;54.64;100155.03;2076490;28;20319;-50
2022/06/11 00:12:49;;;;;;;;;;;;;;;21.65;54.58;100162.38;2077389;28;20161;-52
2022/06/11 00:13:50;;;;;;;;;;;;;;;21.66;54.71;100155.03;2079041;28;20243;-52
2022/06/11 00:14:51;;;;;;;;;;;;;;;21.65;54.49;100156.88;2076734;28;19972;-53
2022/06/11 00:15:52;;;;;;;;;;;;;;;21.65;54.56;100151.41;2078538;28;19917;-52
2022/06/11 00:16:53;;;;;;;;;;;;;;;21.64;54.35;100149.69;2071386;28;20011;-52
2022/06/11 00:17:56;;;;;;;;;;;;;;;21.65;54.50;100165.13;2077105;28;19932;-52
2022/06/11 00:18:57;;;;;;;;;;;;;;;21.64;54.71;100152.44;2084154;28;20446;-49
2022/06/11 00:19:58;;;;;;;;;;;;;;;21.64;54.52;100160.66;2084565;28;20337;-53
2022/06/11 00:20:58;;;;;;;;;;;;;;;21.64;54.60;100157.94;2076398;28;19931;-51
2022/06/11 00:21:59;;;;;;;;;;;;;;;21.65;54.61;100153.28;2075151;28;19917;-52
2022/06/11 00:23:00;;;;;;;;;;;;;;;21.65;54.70;100156.88;2083000;28;19916;-52
2022/06/11 00:24:01;;;;;;;;;;;;;;;21.65;54.50;100150.56;2068968;28;19910;-52
2022/06/11 00:25:01;;;;;;;;;;;;;;;21.64;54.66;100155.19;2074267;28;20350;-51
2022/06/11 00:26:03;;;;;;;;;;;;;;;21.64;54.78;100148.84;2084594;28;20012;-52
2022/06/11 00:27:03;;;;;;;;;;;;;;;21.63;54.64;100145.22;2083088;28;20776;-52
2022/06/11 00:28:04;;;;;;;;;;;;;;;21.64;54.59;100157.94;2083580;28;19916;-51
2022/06/11 00:29:05;;;;;;;;;;;;;;;21.63;54.59;100150.72;2084781;28;20142;-51
2022/06/11 00:30:06;;;;;;;;;;;;;;;21.63;54.69;100150.72;2085752;28;19908;-52
2022/06/11 00:31:07;;;;;;;;;;;;;;;21.62;54.68;100155.34;2086155;28;20340;-52
2022/06/11 00:32:08;;;;;;;;;;;;;;;21.63;54.76;100150.72;2085509;28;19920;-52
2022/06/11 00:33:09;;;;;;;;;;;;;;;21.62;54.83;100149.00;2078682;28;20462;-53
2022/06/11 00:34:09;;;;;;;;;;;;;;;21.62;54.78;100151.75;2078326;28;19921;-52
2022/06/11 00:35:10;;;;;;;;;;;;;;;21.62;54.78;100154.50;2075219;28;20024;-52
2022/06/11 00:36:11;;;;;;;;;;;;;;;21.62;54.85;100157.22;2074372;28;19986;-52
2022/06/11 00:37:13;;;;;;;;;;;;;;;21.62;54.77;100154.50;2085137;28;20453;-49
2022/06/11 00:38:13;;;;;;;;;;;;;;;21.62;54.94;100160.81;2080401;28;19924;-49
2022/06/11 00:39:16;;;;;;;;;;;;;;;21.62;54.83;100163.56;2079371;28;19916;-52
2022/06/11 00:40:18;;;;;;;;;;;;;;;21.63;54.67;100156.19;2085805;28;20306;-52
2022/06/11 00:41:20;;;;;;;;;;;;;;;21.63;54.60;100161.69;2081388;28;19920;-52
2022/06/11 00:42:23;;;;;;;;;;;;;;;21.61;54.49;100158.28;2084585;28;19921;-53
2022/06/11 00:43:24;;;;;;;;;;;;;;;21.62;54.92;100158.09;2077833;28;19909;-53
2022/06/11 00:44:25;;;;;;;;;;;;;;;21.63;54.76;100156.19;2082809;28;20015;-52
2022/06/11 00:45:25;;;;;;;;;;;;;;;21.62;54.68;100160.81;2082495;28;19916;-53
2022/06/11 00:46:40;;;;;;;;;;;;;;;21.64;54.63;100157.06;2077622;28;19960;-51
2022/06/11 00:47:42;;;;;;;;;;;;;;;21.62;54.83;100149.84;2080102;28;20238;-51
2022/06/11 00:48:42;;;;;;;;;;;;;;;21.62;54.66;100159.97;2083949;28;19990;-53
2022/06/11 00:49:42;;;;;;;;;;;;;;;21.62;54.77;100155.34;2077652;28;19963;-53
2022/06/11 00:50:54;;;;;;;;;;;;;;;21.62;54.90;100157.22;2078389;28;19924;-50
2022/06/11 00:52:14;;;;;;;;;;;;;;;21.62;54.80;100157.22;2077920;28;19955;-51
2022/06/11 00:53:19;;;;;;;;;;;;;;;21.62;54.77;100149.00;2077048;28;19940;-52
2022/06/11 00:54:22;;;;;;;;;;;;;;;21.62;54.76;100155.34;2077125;28;19917;-52
2022/06/11 00:55:36;;;;;;;;;;;;;;;21.62;54.84;100149.84;2077637;28;20350;-52
2022/06/11 00:56:38;;;;;;;;;;;;;;;21.62;54.76;100149.00;2081728;28;19917;-52
2022/06/11 00:57:41;;;;;;;;;;;;;;;21.62;54.78;100149.84;2084504;28;19955;-52
2022/06/11 00:58:45;;;;;;;;;;;;;;;21.61;54.71;100148.16;2082879;28;19920;-52
2022/06/11 00:59:50;;;;;;;;;;;;;;;21.62;54.87;100144.38;2084475;28;20381;-52
2022/06/11 01:00:53;;;;;;;;;;;;;;;21.62;54.87;100144.38;2085861;28;19923;-52
2022/06/11 01:01:53;;;;;;;;;;;;;;;21.62;54.67;100143.50;2086548;28;19913;-52
2022/06/11 01:02:54;;;;;;;;;;;;;;;21.61;54.85;100147.28;2085574;28;19916;-52
2022/06/11 01:03:56;;;;;;;;;;;;;;;21.61;54.72;100141.81;2084911;28;19916;-52
2022/06/11 01:04:58;;;;;;;;;;;;;;;21.61;54.90;100142.66;2085136;28;19913;-52
2022/06/11 01:06:19;;;;;;;;;;;;;;;21.61;54.88;100148.16;2088365;28;20652;-52
2022/06/11 01:07:25;;;;;;;;;;;;;;;21.61;54.86;100141.81;2079055;28;20017;-52
2022/06/11 01:08:32;;;;;;;;;;;;;;;21.60;55.02;100135.44;2086255;28;19943;-52
2022/06/11 01:09:35;;;;;;;;;;;;;;;21.61;54.83;100142.66;2084125;28;19920;-50
2022/06/11 01:10:38;;;;;;;;;;;;;;;21.61;54.87;100130.84;2085221;28;20866;-52
2022/06/11 01:11:39;;;;;;;;;;;;;;;21.61;54.92;100133.59;2084960;28;19913;-52
2022/06/11 01:12:52;;;;;;;;;;;;;;;21.61;54.91;100137.19;2078034;28;19920;-52
2022/06/11 01:14:08;;;;;;;;;;;;;;;21.61;54.75;100130.84;2077274;28;19920;-52
2022/06/11 01:15:22;;;;;;;;;;;;;;;21.62;54.82;100132.53;2077583;28;20424;-53
2022/06/11 01:16:34;;;;;;;;;;;;;;;21.61;54.77;100136.31;2076971;28;19913;-52
2022/06/11 01:17:45;;;;;;;;;;;;;;;21.61;54.96;100137.19;2082954;28;19933;-52
2022/06/11 01:18:51;;;;;;;;;;;;;;;21.61;54.89;100130.84;2086518;28;19978;-52
2022/06/11 01:19:54;;;;;;;;;;;;;;;21.62;54.85;100129.81;2082821;28;19966;-53
2022/06/11 01:21:06;;;;;;;;;;;;;;;21.62;54.80;100138.03;2076379;28;19913;-52
2022/06/11 01:22:07;;;;;;;;;;;;;;;21.63;54.70;100131.50;2076222;28;20207;-51
2022/06/11 01:23:13;;;;;;;;;;;;;;;21.62;54.91;100127.06;2078414;28;19913;-52
2022/06/11 01:24:16;;;;;;;;;;;;;;;21.62;55.02;100132.53;2086950;28;19962;-52
2022/06/11 01:25:32;;;;;;;;;;;;;;;21.62;54.99;100122.41;2082864;28;20356;-53
2022/06/11 01:26:41;;;;;;;;;;;;;;;21.62;55.01;100130.66;2084202;28;20048;-50
2022/06/11 01:27:41;;;;;;;;;;;;;;;21.62;54.78;100132.53;2085257;28;19912;-52
2022/06/11 01:29:00;;;;;;;;;;;;;;;21.61;54.84;100130.84;2083526;28;19920;-52
2022/06/11 01:30:00;;;;;;;;;;;;;;;21.62;54.98;100135.28;2086068;28;19920;-51
2022/06/11 01:31:01;;;;;;;;;;;;;;;21.62;55.08;100132.53;2078616;28;19916;-51
2022/06/11 01:32:13;;;;;;;;;;;;;;;21.62;54.64;100138.88;2085210;28;19912;-52
2022/06/11 01:33:18;;;;;;;;;;;;;;;21.62;54.95;100138.03;2083695;28;19916;-52
2022/06/11 01:34:18;;;;;;;;;;;;;;;21.61;54.83;100130.84;2085651;28;19916;-53
2022/06/11 01:35:47;;;;;;;;;;;;;;;21.61;55.03;100131.69;2084111;28;20039;-54
2022/06/11 01:36:49;;;;;;;;;;;;;;;21.61;54.93;100137.19;2077889;28;20656;-52
2022/06/11 01:37:52;;;;;;;;;;;;;;;21.61;54.91;100130.84;2082001;28;19916;-51
2022/06/11 01:38:52;;;;;;;;;;;;;;;21.60;55.02;100126.34;2084931;28;19939;-53
2022/06/11 01:40:05;;;;;;;;;;;;;;;21.62;54.84;100132.53;2083332;28;19912;-50
2022/06/11 01:41:06;;;;;;;;;;;;;;;21.60;54.94;100134.59;2086564;28;19932;-52
2022/06/11 01:42:16;;;;;;;;;;;;;;;21.61;54.95;100131.69;2076748;28;20266;-51
2022/06/11 01:43:19;;;;;;;;;;;;;;;21.61;55.16;100136.31;2080807;28;19916;-52
2022/06/11 01:44:22;;;;;;;;;;;;;;;21.62;55.09;100140.78;2079348;28;20019;-53
2022/06/11 01:45:30;;;;;;;;;;;;;;;21.62;54.95;100138.88;2077548;28;19924;-52
2022/06/11 01:46:32;;;;;;;;;;;;;;;21.62;55.11;100138.03;2077584;28;19975;-52
2022/06/11 01:47:34;;;;;;;;;;;;;;;21.61;55.01;100137.19;2077395;28;19983;-52
2022/06/11 01:48:35;;;;;;;;;;;;;;;21.62;55.04;100138.03;2079326;28;19924;-52
2022/06/11 01:49:38;;;;;;;;;;;;;;;21.63;55.01;100134.25;2076689;28;19960;-52
2022/06/11 01:50:50;;;;;;;;;;;;;;;21.63;54.83;100139.72;2075545;28;19916;-52
2022/06/11 01:51:50;;;;;;;;;;;;;;;21.62;54.94;100132.53;2075749;28;20346;-52
2022/06/11 01:52:50;;;;;;;;;;;;;;;21.62;55.03;100138.03;2076234;28;19916;-53
2022/06/11 01:53:54;;;;;;;;;;;;;;;21.61;55.11;100128.94;2075056;28;19928;-52
2022/06/11 01:55:12;;;;;;;;;;;;;;;21.62;54.86;100132.53;2076753;28;19921;-52
2022/06/11 01:56:24;;;;;;;;;;;;;;;21.62;54.86;100129.81;2081336;28;19932;-52
2022/06/11 01:57:43;;;;;;;;;;;;;;;21.61;54.87;100130.84;2077606;28;20852;-51
2022/06/11 01:58:46;;;;;;;;;;;;;;;21.63;55.02;100134.25;2076414;28;20015;-52
2022/06/11 01:59:47;;;;;;;;;;;;;;;21.62;54.92;100132.53;2079170;28;19909;-53
2022/06/11 02:00:51;;;;;;;;;;;;;;;21.63;55.08;100134.25;2075548;28;20393;-53
2022/06/11 02:02:07;;;;;;;;;;;;;;;21.63;55.17;100131.50;2076289;28;20708;-50
2022/06/11 02:03:07;;;;;;;;;;;;;;;21.62;55.03;100132.53;2071691;28;19988;-52
2022/06/11 02:04:27;;;;;;;;;;;;;;;21.62;54.96;100133.41;2082430;28;19923;-52
2022/06/11 02:05:28;;;;;;;;;;;;;;;21.62;54.77;100138.03;2070598;28;19909;-52
2022/06/11 02:06:33;;;;;;;;;;;;;;;21.62;55.10;100138.03;2079210;28;19909;-51
2022/06/11 02:07:33;;;;;;;;;;;;;;;21.61;54.88;100130.84;2076246;28;19924;-52
2022/06/11 02:08:52;;;;;;;;;;;;;;;21.62;54.91;100138.03;2076616;28;19917;-52
2022/06/11 02:10:03;;;;;;;;;;;;;;;21.61;55.16;100133.59;2072317;28;19917;-52
2022/06/11 02:11:13;;;;;;;;;;;;;;;21.62;54.94;100132.53;2076911;28;19916;-52
2022/06/11 02:12:13;;;;;;;;;;;;;;;21.62;55.01;100143.50;2076700;28;19954;-52
2022/06/11 02:13:27;;;;;;;;;;;;;;;21.61;55.11;100148.16;2079563;28;20331;-51
2022/06/11 02:14:31;;;;;;;;;;;;;;;21.61;55.03;100139.06;2070484;28;19924;-52
2022/06/11 02:15:35;;;;;;;;;;;;;;;21.61;55.09;100139.06;2078801;28;20382;-53
2022/06/11 02:16:42;;;;;;;;;;;;;;;21.61;54.99;100136.31;2076140;28;20608;-50
2022/06/11 02:17:45;;;;;;;;;;;;;;;21.61;55.11;100136.31;2076868;28;20131;-53
2022/06/11 02:18:47;;;;;;;;;;;;;;;21.61;55.11;100136.31;2076813;28;19917;-52
2022/06/11 02:19:54;;;;;;;;;;;;;;;21.62;54.94;100143.50;2075908;28;20126;-52
2022/06/11 02:20:59;;;;;;;;;;;;;;;21.61;54.84;100139.06;2076003;28;19956;-51
2022/06/11 02:22:09;;;;;;;;;;;;;;;21.62;54.94;100149.00;2078483;28;19913;-52
2022/06/11 02:23:20;;;;;;;;;;;;;;;21.62;54.92;100143.50;2076238;28;19952;-52
2022/06/11 02:24:25;;;;;;;;;;;;;;;21.61;54.95;100137.19;2069606;28;20769;-52
2022/06/11 02:25:34;;;;;;;;;;;;;;;21.61;55.08;100137.19;2074285;28;20008;-51
2022/06/11 02:26:39;;;;;;;;;;;;;;;21.61;55.09;100128.09;2076532;28;19968;-53
2022/06/11 02:27:40;;;;;;;;;;;;;;;21.62;55.27;100132.53;2077466;28;19916;-50
2022/06/11 02:28:43;;;;;;;;;;;;;;;21.62;54.92;100140.78;2078711;28;20294;-52
2022/06/11 02:29:45;;;;;;;;;;;;;;;21.62;55.12;100136.13;2076802;28;19967;-52
2022/06/11 02:30:46;;;;;;;;;;;;;;;21.62;55.22;100140.78;2074882;28;19963;-52
2022/06/11 02:31:49;;;;;;;;;;;;;;;21.62;55.06;100138.03;2074971;28;19917;-55
2022/06/11 02:32:49;;;;;;;;;;;;;;;21.63;54.88;100142.47;2078199;28;19967;-52
2022/06/11 02:33:50;;;;;;;;;;;;;;;21.63;54.98;100134.25;2073729;28;19916;-52
2022/06/11 02:34:55;;;;;;;;;;;;;;;21.62;54.93;100143.50;2077491;28;20364;-52
2022/06/11 02:35:59;;;;;;;;;;;;;;;21.62;55.03;100143.50;2075449;28;20361;-50
2022/06/11 02:37:10;;;;;;;;;;;;;;;21.61;54.91;100136.31;2075995;28;19917;-54
2022/06/11 02:38:12;;;;;;;;;;;;;;;21.62;55.22;100143.50;2077496;28;19917;-52
2022/06/11 02:39:13;;;;;;;;;;;;;;;21.62;55.18;100143.50;2076904;28;19979;-53
2022/06/11 02:40:18;;;;;;;;;;;;;;;21.62;55.17;100149.00;2075861;28;19912;-52
2022/06/11 02:41:24;;;;;;;;;;;;;;;21.62;55.22;100143.50;2074392;28;20415;-52
2022/06/11 02:42:24;;;;;;;;;;;;;;;21.62;55.06;100138.03;2078861;28;19917;-52
2022/06/11 02:43:24;;;;;;;;;;;;;;;21.61;55.16;100141.81;2076959;28;19965;-52
2022/06/11 02:44:26;;;;;;;;;;;;;;;21.61;55.00;100139.06;2080914;28;19956;-52
2022/06/11 02:45:26;;;;;;;;;;;;;;;21.61;55.22;100139.91;2080542;28;20045;-52
2022/06/11 02:46:43;;;;;;;;;;;;;;;21.60;55.11;100140.94;2077320;28;19917;-51
2022/06/11 02:47:44;;;;;;;;;;;;;;;21.61;55.21;100136.31;2084428;28;20291;-51
2022/06/11 02:48:45;;;;;;;;;;;;;;;21.61;55.18;100150.03;2083894;28;19939;-52
2022/06/11 02:49:46;;;;;;;;;;;;;;;21.60;55.05;100137.34;2082384;28;19916;-51
2022/06/11 02:50:47;;;;;;;;;;;;;;;21.61;55.10;100144.56;2087148;28;19923;-53
2022/06/11 02:51:48;;;;;;;;;;;;;;;21.61;55.07;100147.28;2082175;28;20011;-53
2022/06/11 02:52:48;;;;;;;;;;;;;;;21.60;55.09;100138.19;2086075;28;19983;-52
2022/06/11 02:53:49;;;;;;;;;;;;;;;21.61;55.07;100141.81;2086058;28;19916;-52
2022/06/11 02:54:50;;;;;;;;;;;;;;;21.61;55.24;100150.03;2084798;28;19916;-52
2022/06/11 02:55:50;;;;;;;;;;;;;;;21.61;55.17;100141.81;2085004;28;20011;-52
2022/06/11 02:56:52;;;;;;;;;;;;;;;21.61;55.07;100148.16;2085434;28;19933;-50
2022/06/11 02:57:53;;;;;;;;;;;;;;;21.61;55.03;100144.56;2088158;28;19955;-51
2022/06/11 02:58:53;;;;;;;;;;;;;;;21.61;54.94;100141.81;2086965;28;19952;-52
2022/06/11 02:59:54;;;;;;;;;;;;;;;21.61;55.11;100141.81;2084569;28;19908;-52
2022/06/11 03:00:54;;;;;;;;;;;;;;;21.60;55.00;100146.41;2085122;28;19943;-52
2022/06/11 03:01:56;;;;;;;;;;;;;;;21.61;55.16;100139.06;2085998;28;20193;-52
2022/06/11 03:02:56;;;;;;;;;;;;;;;21.62;55.06;100143.50;2083537;28;20274;-52
2022/06/11 03:03:57;;;;;;;;;;;;;;;21.61;55.17;100142.66;2085774;28;19964;-50
2022/06/11 03:04:57;;;;;;;;;;;;;;;21.61;55.21;100141.81;2086523;28;19916;-52
2022/06/11 03:05:58;;;;;;;;;;;;;;;21.61;55.32;100144.56;2086739;28;19920;-52
2022/06/11 03:06:59;;;;;;;;;;;;;;;21.62;54.95;100152.59;2085107;28;19944;-52
2022/06/11 03:08:00;;;;;;;;;;;;;;;21.62;55.24;100149.00;2084878;28;19943;-52
2022/06/11 03:09:01;;;;;;;;;;;;;;;21.61;55.10;100147.28;2085828;28;19916;-52
2022/06/11 03:10:02;;;;;;;;;;;;;;;21.60;55.12;100146.41;2086524;28;19966;-52
2022/06/11 03:11:02;;;;;;;;;;;;;;;21.61;55.02;100150.03;2086329;28;19912;-53
2022/06/11 03:12:04;;;;;;;;;;;;;;;21.61;55.00;100148.16;2094058;28;19963;-53
2022/06/11 03:13:05;;;;;;;;;;;;;;;21.60;55.21;100151.03;2090994;28;19977;-52
2022/06/11 03:14:06;;;;;;;;;;;;;;;21.60;55.18;100146.41;2091194;28;19945;-51
2022/06/11 03:15:07;;;;;;;;;;;;;;;21.61;55.15;100148.16;2086697;28;19916;-51
2022/06/11 03:16:07;;;;;;;;;;;;;;;21.60;55.24;100148.31;2084707;28;19916;-53
2022/06/11 03:17:09;;;;;;;;;;;;;;;21.60;55.03;100145.56;2084412;28;20245;-52
2022/06/11 03:18:09;;;;;;;;;;;;;;;21.60;55.00;100146.41;2089693;28;19920;-52
2022/06/11 03:19:10;;;;;;;;;;;;;;;21.61;55.16;100147.28;2081659;28;20394;-52
2022/06/11 03:20:11;;;;;;;;;;;;;;;21.59;55.25;100144.72;2075760;28;19943;-52
2022/06/11 03:21:11;;;;;;;;;;;;;;;21.59;55.17;100150.19;2089092;28;20124;-52
2022/06/11 03:22:12;;;;;;;;;;;;;;;21.59;55.34;100149.34;2092098;28;19923;-52
2022/06/11 03:23:12;;;;;;;;;;;;;;;21.60;55.34;100151.03;2094770;28;19916;-52
2022/06/11 03:24:12;;;;;;;;;;;;;;;21.59;55.20;100150.19;2088926;28;19920;-52
2022/06/11 03:25:13;;;;;;;;;;;;;;;21.59;55.27;100150.19;2093960;28;19915;-52
2022/06/11 03:26:13;;;;;;;;;;;;;;;21.59;55.34;100149.34;2085895;28;19917;-52
2022/06/11 03:27:15;;;;;;;;;;;;;;;21.60;55.16;100151.03;2081898;28;20276;-53
2022/06/11 03:28:18;;;;;;;;;;;;;;;21.60;55.43;100153.78;2076789;28;20264;-52
2022/06/11 03:29:20;;;;;;;;;;;;;;;21.59;55.08;100154.81;2084028;28;19943;-52
2022/06/11 03:30:20;;;;;;;;;;;;;;;21.60;55.19;100156.53;2083329;28;19916;-52
2022/06/11 03:31:20;;;;;;;;;;;;;;;21.59;55.26;100160.31;2078043;28;19972;-52
2022/06/11 03:32:20;;;;;;;;;;;;;;;21.60;55.13;100157.38;2081487;28;19917;-52
2022/06/11 03:33:22;;;;;;;;;;;;;;;21.61;55.42;100163.75;2077151;28;20334;-53
2022/06/11 03:34:23;;;;;;;;;;;;;;;21.60;55.49;100162.00;2088573;28;19916;-52
2022/06/11 03:35:23;;;;;;;;;;;;;;;21.60;55.09;100164.75;2089418;28;19989;-50
2022/06/11 03:36:23;;;;;;;;;;;;;;;21.60;55.18;100156.53;2085588;28;19916;-52
2022/06/11 03:37:24;;;;;;;;;;;;;;;21.60;55.16;100156.53;2074387;28;19917;-52
2022/06/11 03:38:24;;;;;;;;;;;;;;;21.59;55.22;100157.56;2076482;28;20911;-52
2022/06/11 03:39:24;;;;;;;;;;;;;;;21.61;55.03;100161.00;2083160;28;19916;-52
2022/06/11 03:40:25;;;;;;;;;;;;;;;21.61;55.48;100158.28;2085875;28;20346;-53
2022/06/11 03:41:26;;;;;;;;;;;;;;;21.61;55.31;100169.25;2079054;28;20208;-50
2022/06/11 03:42:26;;;;;;;;;;;;;;;21.60;55.08;100165.63;2086298;28;20345;-52
2022/06/11 03:43:27;;;;;;;;;;;;;;;21.60;55.36;100168.34;2083642;28;19982;-52
2022/06/11 03:44:27;;;;;;;;;;;;;;;21.60;55.03;100162.00;2079121;28;20525;-52
2022/06/11 03:45:27;;;;;;;;;;;;;;;21.61;55.34;100169.25;2084761;28;19924;-51
2022/06/11 03:46:29;;;;;;;;;;;;;;;21.60;55.37;100173.00;2082306;28;19923;-53
2022/06/11 03:47:29;;;;;;;;;;;;;;;21.60;55.45;100171.09;2087259;28;19991;-53
2022/06/11 03:48:30;;;;;;;;;;;;;;;21.60;55.25;100173.00;2083670;28;19920;-52
2022/06/11 03:49:30;;;;;;;;;;;;;;;21.60;55.14;100170.25;2085525;28;19913;-52
2022/06/11 03:50:33;;;;;;;;;;;;;;;21.60;55.28;100170.25;2087102;28;20002;-51
2022/06/11 03:51:34;;;;;;;;;;;;;;;21.59;55.44;100171.28;2083297;28;19908;-52
2022/06/11 03:52:35;;;;;;;;;;;;;;;21.60;55.25;100173.00;2085595;28;20179;-52
2022/06/11 03:53:36;;;;;;;;;;;;;;;21.59;55.38;100171.28;2083851;28;20444;-52
2022/06/11 03:54:37;;;;;;;;;;;;;;;21.59;55.20;100174.03;2083041;28;19909;-53
2022/06/11 03:55:37;;;;;;;;;;;;;;;;;;2077855;28;19917;-52
2022/06/11 03:56:38;;;;;;;;;;;;;;;21.57;55.40;100168.69;2093530;28;20001;-53
2022/06/11 03:57:39;;;;;;;;;;;;;;;21.58;55.20;100175.03;2088286;28;20034;-53
2022/06/11 03:58:40;;;;;;;;;;;;;;;21.57;55.61;100174.19;2076316;28;19917;-51
2022/06/11 03:59:40;;;;;;;;;;;;;;;21.58;55.14;100172.28;2076849;28;19927;-52
2022/06/11 04:02:00;;;;;;;;;;;;;;;21.57;55.30;100168.69;2074401;28;19921;-52
2022/06/11 04:03:01;;;;;;;;;;;;;;;21.59;55.27;100179.50;2081565;28;20375;-49
2022/06/11 04:04:01;;;;;;;;;;;;;;;;;;2085933;28;20164;-53
2022/06/11 04:05:02;;;;;;;;;;;;;;;21.60;55.36;100186.69;2084797;28;20437;-52
2022/06/11 04:06:03;;;;;;;;;;;;;;;21.59;55.28;100187.75;2082002;28;19938;-53
2022/06/11 04:07:04;;;;;;;;;;;;;;;21.59;55.28;100188.59;2086399;28;19966;-53
2022/06/11 04:08:05;;;;;;;;;;;;;;;21.60;55.17;100192.19;2083405;28;19943;-52
2022/06/11 04:09:08;;;;;;;;;;;;;;;21.60;55.22;100192.19;2076472;28;20203;-51
2022/06/11 04:10:09;;;;;;;;;;;;;;;21.60;55.24;100186.69;2074798;28;19939;-52
2022/06/11 04:11:11;;;;;;;;;;;;;;;21.59;55.43;100179.50;2087421;28;20007;-52
2022/06/11 04:12:15;;;;;;;;;;;;;;;21.59;55.32;100182.25;2087295;28;19912;-50
2022/06/11 04:13:15;;;;;;;;;;;;;;;21.59;55.32;100187.75;2081145;28;19917;-52
2022/06/11 04:14:15;;;;;;;;;;;;;;;21.60;55.29;100189.44;2076837;28;19913;-51
2022/06/11 04:15:16;;;;;;;;;;;;;;;21.59;55.36;100191.34;2085540;28;20028;-52
2022/06/11 04:16:28;;;;;;;;;;;;;;;21.61;55.28;100188.44;2080372;28;20331;-52
2022/06/11 04:17:31;;;;;;;;;;;;;;;21.60;55.50;100186.69;2076400;28;19916;-53
2022/06/11 04:18:33;;;;;;;;;;;;;;;21.59;55.40;100185.84;2077064;28;20235;-51
2022/06/11 04:19:38;;;;;;;;;;;;;;;21.60;55.18;100183.97;2075608;28;20007;-52
2022/06/11 04:20:38;;;;;;;;;;;;;;;21.59;55.36;100185.00;2077946;28;19917;-52
2022/06/11 04:21:38;;;;;;;;;;;;;;;21.59;55.53;100187.75;2074778;28;20413;-50
2022/06/11 04:22:38;;;;;;;;;;;;;;;;;;2075401;28;19917;-52
2022/06/11 04:23:40;;;;;;;;;;;;;;;21.59;55.45;100193.22;2076416;28;20675;-52
2022/06/11 04:24:41;;;;;;;;;;;;;;;21.57;55.53;100192.53;2083250;28;20065;-53
2022/06/11 04:25:42;;;;;;;;;;;;;;;21.58;55.48;100191.50;2088069;28;19913;-52
2022/06/11 04:26:44;;;;;;;;;;;;;;;21.57;55.30;100196.13;2086863;28;20330;-52
2022/06/11 04:27:45;;;;;;;;;;;;;;;21.57;55.32;100196.13;2079061;28;19924;-49
2022/06/11 04:28:45;;;;;;;;;;;;;;;21.56;55.41;100193.56;2077459;28;19924;-53
2022/06/11 04:29:48;;;;;;;;;;;;;;;21.57;55.37;100203.50;2079590;28;20359;-52
2022/06/11 04:30:48;;;;;;;;;;;;;;;21.57;55.37;100196.13;2070964;28;20325;-52
2022/06/11 04:31:50;;;;;;;;;;;;;;;21.57;55.28;100198.00;2072292;28;19916;-51
2022/06/11 04:32:50;;;;;;;;;;;;;;;21.57;55.36;100196.13;2082521;28;19913;-52
2022/06/11 04:33:50;;;;;;;;;;;;;;;21.57;55.51;100203.50;2078026;28;20406;-52
2022/06/11 04:34:51;;;;;;;;;;;;;;;21.57;55.54;100195.28;2077069;28;19909;-53
2022/06/11 04:35:51;;;;;;;;;;;;;;;21.57;55.54;100203.50;2076873;28;20688;-51
2022/06/11 04:36:52;;;;;;;;;;;;;;;21.58;55.36;100207.94;2081352;28;20544;-51
2022/06/11 04:37:52;;;;;;;;;;;;;;;21.57;55.28;100198.88;2077063;28;19913;-51
2022/06/11 04:38:53;;;;;;;;;;;;;;;;;;2086466;28;19952;-52
2022/06/11 04:39:54;;;;;;;;;;;;;;;21.58;55.36;100202.47;2080597;28;19923;-51
2022/06/11 04:40:55;;;;;;;;;;;;;;;21.57;55.29;100206.25;2087716;28;19916;-53
2022/06/11 04:41:55;;;;;;;;;;;;;;;21.57;55.31;100204.34;2084825;28;20854;-52
2022/06/11 04:42:56;;;;;;;;;;;;;;;21.58;55.28;100207.94;2086020;28;19952;-52
2022/06/11 04:43:56;;;;;;;;;;;;;;;21.59;55.61;100217.91;2075650;28;20571;-52
2022/06/11 04:44:57;;;;;;;;;;;;;;;21.59;55.22;100215.16;2080735;28;19924;-52
2022/06/11 04:45:57;;;;;;;;;;;;;;;21.58;55.27;100205.19;2088038;28;19916;-50
2022/06/11 04:46:58;;;;;;;;;;;;;;;21.57;55.52;100211.72;2085314;28;19994;-52
2022/06/11 04:47:58;;;;;;;;;;;;;;;21.57;55.40;100206.25;2084872;28;19982;-52
2022/06/11 04:48:58;;;;;;;;;;;;;;;;;;2085359;28;19990;-53
2022/06/11 04:50:00;;;;;;;;;;;;;;;21.59;55.43;100204.19;2081552;28;19952;-52
2022/06/11 04:51:01;;;;;;;;;;;;;;;21.59;55.49;100201.47;2089976;28;20619;-52
2022/06/11 04:52:02;;;;;;;;;;;;;;;21.59;55.40;100201.47;2084386;28;20348;-53
2022/06/11 04:53:02;;;;;;;;;;;;;;;21.57;55.44;100196.13;2083657;28;20094;-52
2022/06/11 04:54:03;;;;;;;;;;;;;;;21.57;55.32;100201.59;2091775;28;20307;-52
2022/06/11 04:55:03;;;;;;;;;;;;;;;;;;2086598;28;19922;-53
2022/06/11 04:56:04;;;;;;;;;;;;;;;21.57;55.54;100200.75;2082170;28;19917;-52
2022/06/11 04:57:04;;;;;;;;;;;;;;;21.57;55.38;100201.59;2087591;28;20281;-52
2022/06/11 04:58:05;;;;;;;;;;;;;;;21.57;55.33;100200.75;2085311;28;20706;-51
2022/06/11 04:59:06;;;;;;;;;;;;;;;21.57;55.39;100203.50;2091302;28;19916;-52
2022/06/11 05:00:07;;;;;;;;;;;;;;;21.56;55.29;100199.91;2083981;28;19982;-52
2022/06/11 05:01:07;;;;;;;;;;;;;;;21.57;55.39;100200.75;2085011;28;19944;-52
2022/06/11 05:02:08;;;;;;;;;;;;;;;21.57;55.52;100206.25;2085601;28;19916;-53
2022/06/11 05:03:08;;;;;;;;;;;;;;;21.55;55.40;100200.91;2082676;28;19916;-53
2022/06/11 05:04:10;;;;;;;;;;;;;;;21.56;55.44;100204.53;2085511;28;19916;-50
2022/06/11 05:05:10;;;;;;;;;;;;;;;21.55;55.54;100197.31;2087165;28;19991;-53
2022/06/11 05:06:11;;;;;;;;;;;;;;;21.55;55.54;100200.91;2086528;28;20827;-52
2022/06/11 05:07:11;;;;;;;;;;;;;;;21.56;55.42;100210.03;2084798;28;19948;-52
2022/06/11 05:08:12;;;;;;;;;;;;;;;21.56;55.60;100204.53;2088853;28;20326;-52
2022/06/11 05:09:17;;;;;;;;;;;;;;;21.56;55.62;100210.03;2088572;28;19951;-52
2022/06/11 05:10:18;;;;;;;;;;;;;;;21.55;55.71;100197.31;2077102;28;19940;-52
2022/06/11 05:11:18;;;;;;;;;;;;;;;21.56;55.50;100204.53;2077696;28;20877;-53
2022/06/11 05:12:18;;;;;;;;;;;;;;;21.56;55.61;100199.91;2077213;28;19917;-53
2022/06/11 05:13:19;;;;;;;;;;;;;;;21.57;55.38;100200.75;2081888;28;19916;-53
2022/06/11 05:14:20;;;;;;;;;;;;;;;21.56;55.64;100199.91;2086002;28;20723;-53
2022/06/11 05:15:20;;;;;;;;;;;;;;;21.55;55.30;100197.31;2085880;28;19960;-52
2022/06/11 05:16:21;;;;;;;;;;;;;;;21.57;55.59;100206.25;2084717;28;19920;-52
2022/06/11 05:17:22;;;;;;;;;;;;;;;21.56;55.52;100199.06;2086538;28;19938;-52
2022/06/11 05:18:23;;;;;;;;;;;;;;;21.55;55.55;100200.06;2086099;28;20298;-52
2022/06/11 05:19:23;;;;;;;;;;;;;;;21.56;55.48;100204.53;2082108;28;19920;-52
2022/06/11 05:20:24;;;;;;;;;;;;;;;21.55;55.38;100198.16;2077962;28;20031;-53
2022/06/11 05:21:25;;;;;;;;;;;;;;;21.57;55.54;100200.75;2076030;28;19924;-51
2022/06/11 05:22:25;;;;;;;;;;;;;;;21.56;55.37;100196.31;2078399;28;19924;-52
2022/06/11 05:23:25;;;;;;;;;;;;;;;21.56;55.40;100199.06;2087131;28;20004;-52
2022/06/11 05:24:29;;;;;;;;;;;;;;;21.55;55.41;100203.66;2085558;28;19913;-52
2022/06/11 05:25:30;;;;;;;;;;;;;;;21.57;55.33;100206.25;2085406;28;19924;-52